createdAt,value
2022-11-21T00:02:45.267Z,29.90
2022-11-21T00:06:10.051Z,22.37
2022-11-21T00:09:37.285Z,26.30
2022-11-21T00:13:01.920Z,34.47
2022-11-21T00:16:25.997Z,31.50
2022-11-21T00:19:51.419Z,30.60
2022-11-21T00:23:15.079Z,28.00
2022-11-21T00:26:39.561Z,30.27
2022-11-21T00:30:04.593Z,21.80
2022-11-21T00:33:29.001Z,26.43
2022-11-21T00:36:56.847Z,29.33
2022-11-21T00:40:22.087Z,26.77
2022-11-21T00:43:46.327Z,24.70
2022-11-21T00:47:11.067Z,24.43
2022-11-21T00:50:34.986Z,31.03
2022-11-21T00:54:00.572Z,28.57
2022-11-21T00:57:25.011Z,27.87
2022-11-21T01:00:49.105Z,28.10
2022-11-21T01:04:13.067Z,28.10
2022-11-21T01:07:37.372Z,23.13
2022-11-21T01:11:05.510Z,20.67
2022-11-21T01:14:29.634Z,29.20
2022-11-21T01:17:54.092Z,31.03
2022-11-21T01:21:20.437Z,26.07
2022-11-21T01:24:45.135Z,29.37
2022-11-21T01:28:10.512Z,22.97
2022-11-21T01:31:34.316Z,23.20
2022-11-21T01:34:58.068Z,24.50
2022-11-21T01:38:22.132Z,26.63
2022-11-21T01:41:46.923Z,23.07
2022-11-21T01:45:44.452Z,21.10
2022-11-21T01:49:15.025Z,19.20
2022-11-21T01:52:39.234Z,24.43
2022-11-21T01:56:03.626Z,21.40
2022-11-21T01:59:33.311Z,18.77
2022-11-21T02:03:01.795Z,21.83
2022-11-21T02:06:27.753Z,18.03
2022-11-21T02:09:56.720Z,20.13
2022-11-21T02:13:22.767Z,17.57
2022-11-21T02:16:48.021Z,16.50
2022-11-21T02:20:15.067Z,18.07
2022-11-21T02:23:49.679Z,18.43
2022-11-21T02:27:17.316Z,12.07
2022-11-21T02:30:42.764Z,15.07
2022-11-21T02:34:07.556Z,20.10
2022-11-21T02:37:33.257Z,17.33
2022-11-21T02:41:02.917Z,14.00
2022-11-21T02:44:37.842Z,18.50
2022-11-21T02:48:04.308Z,18.03
2022-11-21T02:51:28.328Z,15.87
2022-11-21T02:54:52.072Z,15.70
2022-11-21T02:58:17.500Z,20.80
2022-11-21T03:01:43.410Z,20.43
2022-11-21T03:05:09.507Z,14.90
2022-11-21T03:08:33.169Z,18.80
2022-11-21T03:11:59.146Z,16.33
2022-11-21T03:15:23.076Z,17.10
2022-11-21T03:18:56.293Z,17.80
2022-11-21T03:22:20.100Z,17.40
2022-11-21T03:25:44.158Z,17.33
2022-11-21T03:29:08.437Z,19.73
2022-11-21T03:32:33.191Z,19.90
2022-11-21T03:35:58.539Z,17.13
2022-11-21T03:39:23.307Z,18.90
2022-11-21T03:42:47.111Z,14.90
2022-11-21T03:46:11.085Z,16.93
2022-11-21T03:49:35.193Z,14.70
2022-11-21T03:53:02.505Z,15.00
2022-11-21T03:56:26.505Z,18.03
2022-11-21T03:59:50.197Z,14.37
2022-11-21T04:03:14.149Z,13.63
2022-11-21T04:06:38.080Z,14.03
2022-11-21T04:10:03.596Z,18.67
2022-11-21T04:13:28.178Z,14.80
2022-11-21T04:16:52.172Z,18.83
2022-11-21T04:20:17.246Z,16.10
2022-11-21T04:23:41.122Z,17.50
2022-11-21T04:27:08.921Z,14.93
2022-11-21T04:30:34.731Z,17.50
2022-11-21T04:33:58.801Z,18.40
2022-11-21T04:37:25.256Z,17.10
2022-11-21T04:40:49.261Z,17.87
2022-11-21T04:44:14.540Z,18.23
2022-11-21T04:47:38.768Z,20.10
2022-11-21T04:51:05.835Z,16.10
2022-11-21T04:54:29.883Z,17.77
2022-11-21T04:57:54.189Z,18.57
2022-11-21T05:01:19.582Z,14.80
2022-11-21T05:04:43.353Z,16.50
2022-11-21T05:08:07.199Z,17.13
2022-11-21T05:11:49.411Z,15.27
2022-11-21T05:15:13.138Z,23.57
2022-11-21T05:18:38.655Z,13.37
2022-11-21T05:22:02.392Z,18.90
2022-11-21T05:25:26.275Z,16.90
2022-11-21T05:28:50.380Z,19.70
2022-11-21T05:32:14.348Z,19.03
2022-11-21T05:35:43.432Z,16.70
2022-11-21T05:39:08.339Z,18.23
2022-11-21T05:42:49.738Z,24.23
2022-11-21T05:46:14.967Z,20.10
2022-11-21T05:49:39.515Z,19.53
2022-11-21T05:53:05.480Z,14.53
2022-11-21T05:56:29.542Z,19.90
2022-11-21T05:59:53.380Z,21.20
2022-11-21T06:03:30.561Z,18.40
2022-11-21T06:06:54.286Z,19.27
2022-11-21T06:10:20.067Z,21.10
2022-11-21T06:13:44.065Z,20.13
2022-11-21T06:17:08.251Z,22.93
2022-11-21T06:20:32.355Z,18.37
2022-11-21T06:23:58.777Z,16.90
2022-11-21T06:27:26.648Z,20.90
2022-11-21T06:30:51.787Z,25.57
2022-11-21T06:34:16.415Z,19.63
2022-11-21T06:37:41.636Z,20.90
2022-11-21T06:41:07.610Z,23.50
2022-11-21T06:44:35.190Z,19.67
2022-11-21T06:48:03.134Z,18.43
2022-11-21T06:51:26.997Z,22.53
2022-11-21T06:54:54.342Z,27.07
2022-11-21T06:58:23.410Z,19.23
2022-11-21T07:01:48.848Z,20.70
2022-11-21T07:05:13.517Z,23.97
2022-11-21T07:08:38.109Z,22.17
2022-11-21T07:12:27.558Z,19.97
2022-11-21T07:15:54.463Z,21.67
2022-11-21T07:19:19.836Z,20.90
2022-11-21T07:22:43.750Z,21.20
2022-11-21T07:26:09.790Z,24.13
2022-11-21T07:29:33.416Z,19.60
2022-11-21T07:32:57.897Z,22.63
2022-11-21T07:36:23.994Z,20.67
2022-11-21T07:39:48.354Z,24.50
2022-11-21T07:43:12.693Z,23.33
2022-11-21T07:46:36.367Z,21.50
2022-11-21T07:50:00.402Z,24.50
2022-11-21T07:53:28.170Z,23.33
2022-11-21T07:56:52.377Z,23.50
2022-11-21T08:00:17.745Z,23.23
2022-11-21T08:03:43.571Z,26.80
2022-11-21T08:07:07.415Z,28.00
2022-11-21T08:10:33.405Z,23.00
2022-11-21T08:13:59.152Z,26.97
2022-11-21T08:17:23.651Z,22.23
2022-11-21T08:20:47.779Z,26.43
2022-11-21T08:24:14.606Z,25.90
2022-11-21T08:27:40.141Z,25.53
2022-11-21T08:31:05.125Z,22.00
2022-11-21T08:34:31.728Z,23.00
2022-11-21T08:37:58.174Z,19.57
2022-11-21T08:41:39.704Z,23.27
2022-11-21T08:45:05.164Z,18.43
2022-11-21T08:48:28.728Z,21.20
2022-11-21T08:51:52.759Z,20.53
2022-11-21T08:55:16.781Z,17.87
2022-11-21T08:58:40.359Z,17.73
2022-11-21T09:02:05.499Z,14.43
2022-11-21T09:05:29.103Z,19.80
2022-11-21T09:08:52.967Z,19.40
2022-11-21T09:12:16.521Z,19.73
2022-11-21T09:15:57.616Z,16.67
2022-11-21T09:19:22.646Z,16.03
2022-11-21T09:22:47.055Z,16.30
2022-11-21T09:26:11.464Z,19.40
2022-11-21T09:29:35.022Z,21.87
2022-11-21T09:33:01.559Z,21.30
2022-11-21T09:36:27.154Z,18.33
2022-11-21T09:39:50.653Z,17.70
2022-11-21T09:43:35.909Z,20.20
2022-11-21T09:47:05.125Z,17.73
2022-11-21T09:50:33.795Z,19.87
2022-11-21T09:54:02.859Z,20.13
2022-11-21T09:57:32.026Z,20.50
2022-11-21T10:00:58.573Z,20.03
2022-11-21T10:04:22.278Z,18.73
2022-11-21T10:07:47.320Z,18.20
2022-11-21T10:11:22.450Z,16.73
2022-11-21T10:14:57.461Z,15.47
2022-11-21T10:18:36.945Z,15.47
2022-11-21T10:22:23.894Z,16.30
2022-11-21T10:25:56.090Z,16.00
2022-11-21T10:29:24.936Z,17.97
2022-11-21T10:32:51.789Z,16.00
2022-11-21T10:36:24.506Z,19.73
2022-11-21T10:39:50.759Z,20.40
2022-11-21T10:43:45.319Z,17.23
2022-11-21T10:47:27.245Z,16.43
2022-11-21T10:51:15.888Z,14.67
2022-11-21T10:55:04.926Z,18.97
2022-11-21T10:58:43.622Z,20.13
2022-11-21T11:02:24.908Z,18.73
2022-11-21T11:05:58.207Z,20.27
2022-11-21T11:09:31.829Z,19.17
2022-11-21T11:13:38.689Z,23.67
2022-11-21T11:16:57.634Z,17.50
2022-11-21T11:20:35.653Z,17.47
2022-11-21T11:24:22.304Z,21.10
2022-11-21T11:27:46.026Z,21.67
2022-11-21T11:31:10.183Z,19.83
2022-11-21T11:34:40.455Z,23.40
2022-11-21T11:38:08.554Z,19.27
2022-11-21T11:42:25.411Z,18.10
2022-11-21T11:46:21.472Z,23.57
2022-11-21T11:50:05.818Z,23.40
2022-11-21T11:53:34.828Z,19.70
2022-11-21T11:57:00.289Z,19.50
2022-11-21T12:00:34.324Z,17.20
2022-11-21T12:04:00.940Z,15.50
2022-11-21T12:11:45.396Z,16.20
2022-11-21T12:15:32.364Z,16.30
2022-11-21T12:19:01.100Z,21.17
2022-11-21T12:22:24.841Z,15.70
2022-11-21T12:25:59.794Z,15.83
2022-11-21T12:29:38.211Z,15.17
2022-11-21T12:33:08.978Z,14.60
2022-11-21T12:36:39.196Z,19.87
2022-11-21T12:40:16.987Z,17.63
2022-11-21T12:43:54.529Z,18.40
2022-11-21T12:47:59.910Z,17.00
2022-11-21T12:52:10.816Z,17.30
2022-11-21T12:55:39.090Z,24.77
2022-11-21T12:59:05.235Z,20.70
2022-11-21T13:02:39.163Z,24.90
2022-11-21T13:06:05.471Z,27.83
2022-11-21T13:09:34.324Z,27.73
2022-11-21T13:13:06.492Z,30.50
2022-11-21T13:16:39.676Z,23.43
2022-11-21T13:20:14.727Z,18.97
2022-11-21T13:23:40.090Z,23.77
2022-11-21T13:27:06.972Z,28.70
2022-11-21T13:30:30.649Z,21.83
2022-11-21T13:33:54.487Z,33.43
2022-11-21T13:38:02.901Z,27.47
2022-11-21T13:42:22.375Z,30.63
2022-11-21T13:45:49.352Z,28.13
2022-11-21T13:49:22.463Z,29.13
2022-11-21T13:52:55.920Z,27.10
2022-11-21T13:56:32.620Z,28.40
2022-11-21T14:00:19.911Z,27.40
2022-11-21T14:04:02.019Z,25.60
2022-11-21T14:07:28.926Z,26.50
2022-11-21T14:10:55.466Z,21.17
2022-11-21T14:14:32.703Z,25.67
2022-11-21T14:17:58.493Z,28.03
2022-11-21T14:21:26.770Z,23.77
2022-11-21T14:24:50.827Z,22.43
2022-11-21T14:28:22.164Z,26.70
2022-11-21T14:31:47.230Z,24.70
2022-11-21T14:35:19.583Z,25.20
2022-11-21T14:38:45.563Z,25.00
2022-11-21T14:42:14.997Z,24.97
2022-11-21T14:45:50.408Z,24.27
2022-11-21T14:49:25.593Z,25.37
2022-11-21T14:52:56.914Z,25.53
2022-11-21T14:56:23.716Z,23.70
2022-11-21T14:59:47.517Z,21.57
2022-11-21T15:03:21.147Z,22.60
2022-11-21T15:06:47.241Z,24.57
2022-11-21T15:10:30.629Z,23.80
2022-11-21T15:14:14.930Z,23.67
2022-11-21T15:18:03.409Z,22.50
2022-11-21T15:21:25.515Z,28.23
2022-11-21T15:24:49.218Z,27.27
2022-11-21T15:28:18.255Z,24.93
2022-11-21T15:31:43.812Z,28.57
2022-11-21T15:35:31.973Z,26.10
2022-11-21T15:39:03.666Z,23.70
2022-11-21T15:42:37.213Z,23.43
2022-11-21T15:46:03.254Z,23.47
2022-11-21T15:49:34.087Z,27.90
2022-11-21T15:52:57.914Z,27.37
2022-11-21T15:56:23.588Z,26.40
2022-11-21T15:59:47.247Z,24.63
2022-11-21T16:03:10.860Z,27.43
2022-11-21T16:06:35.346Z,23.77
2022-11-21T16:09:59.115Z,29.53
2022-11-21T16:13:24.254Z,29.13
2022-11-21T16:16:48.046Z,29.80
2022-11-21T16:20:12.170Z,30.37
2022-11-21T16:23:36.086Z,31.03
2022-11-21T16:26:59.821Z,31.13
2022-11-21T16:30:25.090Z,27.73
2022-11-21T16:33:48.801Z,34.87
2022-11-21T16:37:12.536Z,28.93
2022-11-21T16:40:36.567Z,30.50
2022-11-21T16:44:00.115Z,25.90
2022-11-21T16:47:25.101Z,26.87
2022-11-21T16:50:49.248Z,31.47
2022-11-21T16:54:12.978Z,36.67
2022-11-21T16:57:36.607Z,30.00
2022-11-21T17:01:07.788Z,31.37
2022-11-21T17:04:33.014Z,29.47
2022-11-21T17:07:58.339Z,30.40
2022-11-21T17:11:26.337Z,29.37
2022-11-21T17:14:52.165Z,31.83
2022-11-21T17:18:16.744Z,28.00
2022-11-21T17:21:41.968Z,32.13
2022-11-21T17:25:06.399Z,27.53
2022-11-21T17:28:30.345Z,28.40
2022-11-21T17:31:54.101Z,32.43
2022-11-21T17:35:17.968Z,30.50
2022-11-21T17:38:43.029Z,31.70
2022-11-21T17:42:06.973Z,31.03
2022-11-21T17:45:30.856Z,26.57
2022-11-21T17:48:58.483Z,32.13
2022-11-21T17:52:22.453Z,34.47
2022-11-21T17:55:50.620Z,32.83
2022-11-21T17:59:14.368Z,36.03
2022-11-21T18:02:38.266Z,37.00
2022-11-21T18:06:04.388Z,46.90
2022-11-21T18:09:28.676Z,28.10
2022-11-21T18:12:53.966Z,29.40
2022-11-21T18:16:19.920Z,34.30
2022-11-21T18:19:43.773Z,35.60
2022-11-21T18:23:08.362Z,42.20
2022-11-21T18:26:33.696Z,49.60
2022-11-21T18:29:58.841Z,51.13
2022-11-21T18:33:22.561Z,38.07
2022-11-21T18:36:47.667Z,93.70
2022-11-21T18:40:12.934Z,57.33
2022-11-21T18:43:36.698Z,61.23
2022-11-21T18:47:01.684Z,36.00
2022-11-21T18:50:25.396Z,78.27
2022-11-21T18:53:52.523Z,49.80
2022-11-21T18:57:16.295Z,69.70
2022-11-21T19:00:39.969Z,39.73
2022-11-21T19:04:08.697Z,71.07
2022-11-21T19:07:32.872Z,77.50
2022-11-21T19:10:56.962Z,43.27
2022-11-21T19:14:20.774Z,31.63
2022-11-21T19:17:44.460Z,60.90
2022-11-21T19:21:11.202Z,53.77
2022-11-21T19:24:34.904Z,44.10
2022-11-21T19:27:58.717Z,41.40
2022-11-21T19:31:23.371Z,64.60
2022-11-21T19:34:46.979Z,46.87
2022-11-21T19:38:13.797Z,35.80
2022-11-21T19:41:37.496Z,32.30
2022-11-21T19:45:01.157Z,35.10
2022-11-21T19:48:24.882Z,37.67
2022-11-21T19:51:48.628Z,34.13
2022-11-21T19:55:14.850Z,33.00
2022-11-21T19:58:39.869Z,32.20
2022-11-21T20:02:03.648Z,31.07
2022-11-21T20:05:27.569Z,37.53
2022-11-21T20:08:53.707Z,33.63
2022-11-21T20:12:18.928Z,37.17
2022-11-21T20:15:42.538Z,34.77
2022-11-21T20:19:08.091Z,32.33
2022-11-21T20:22:31.993Z,29.70
2022-11-21T20:25:55.601Z,36.17
2022-11-21T20:29:20.686Z,33.87
2022-11-21T20:32:44.642Z,35.47
2022-11-21T20:36:09.806Z,29.07
2022-11-21T20:39:33.521Z,30.70
2022-11-21T20:42:57.181Z,28.53
2022-11-21T20:46:22.470Z,29.73
2022-11-21T20:49:46.145Z,27.97
2022-11-21T20:56:53.456Z,32.87
2022-11-21T21:00:18.133Z,35.97
2022-11-21T21:03:44.035Z,38.03
2022-11-21T21:07:07.773Z,29.60
2022-11-21T21:10:57.963Z,43.77
2022-11-21T21:14:19.310Z,29.70
2022-11-21T21:17:45.374Z,39.00
2022-11-21T21:21:17.378Z,36.90
2022-11-21T21:24:41.890Z,29.03
2022-11-21T21:28:05.829Z,29.00
2022-11-21T21:31:30.884Z,33.10
2022-11-21T21:34:54.562Z,32.17
2022-11-21T21:38:19.775Z,25.97
2022-11-21T21:41:45.889Z,23.70
2022-11-21T21:45:10.709Z,24.93
2022-11-21T21:48:34.826Z,29.60
2022-11-21T21:51:58.513Z,30.83
2022-11-21T21:55:23.513Z,21.87
2022-11-21T21:58:48.072Z,23.40
2022-11-21T22:02:12.464Z,22.97
2022-11-21T22:05:36.119Z,23.00
2022-11-21T22:08:59.787Z,29.07
2022-11-21T22:12:25.108Z,21.73
2022-11-21T22:15:48.768Z,27.20
2022-11-21T22:19:12.602Z,29.23
2022-11-21T22:22:36.189Z,24.90
2022-11-21T22:25:59.868Z,27.63
2022-11-21T22:29:25.073Z,24.23
2022-11-21T22:32:48.675Z,23.87
2022-11-21T22:36:13.873Z,27.90
2022-11-21T22:39:37.635Z,24.60
2022-11-21T22:43:01.459Z,29.00
2022-11-21T22:46:27.427Z,25.47
2022-11-21T22:49:51.067Z,25.17
2022-11-21T22:53:14.676Z,24.33
2022-11-21T22:56:38.354Z,25.30
2022-11-21T23:00:02.262Z,23.70
2022-11-21T23:03:27.397Z,28.53
2022-11-21T23:06:51.052Z,21.83
2022-11-21T23:10:14.710Z,26.20
2022-11-21T23:13:40.378Z,30.23
2022-11-21T23:17:03.930Z,20.90
2022-11-21T23:20:28.968Z,25.50
2022-11-21T23:23:52.704Z,29.03
2022-11-21T23:27:16.467Z,26.07
2022-11-21T23:30:40.238Z,21.47
2022-11-21T23:34:04.227Z,23.43
2022-11-21T23:37:29.282Z,22.57
2022-11-21T23:40:53.035Z,22.47
2022-11-21T23:44:16.645Z,22.73
2022-11-21T23:47:40.489Z,21.47
2022-11-21T23:51:04.113Z,18.13
2022-11-21T23:54:29.076Z,11.80
2022-11-21T23:57:52.834Z,10.63
